Time;durP1;ratioP1;P1;durP2;ratioP2;P2;SDS_P1;SDS_P2;PMS_P1;PMS_P2;Temp;Humidity;BMP_temperature;BMP_pressure;BME280_temperature;BME280_humidity;BME280_pressure;Samples;Min_cycle;Max_cycle;Signal;HPM_P1;HPM_P2
2023/10/15 00:00:57;;;;;;;1.75;0.60;;;11.80;76.10;;;;;;4986415;28;20513;-62
2023/10/15 00:03:22;;;;;;;3.45;0.90;;;11.80;76.10;;;;;;4987637;28;20055;-63
2023/10/15 00:05:48;;;;;;;2.60;0.82;;;11.80;76.00;;;;;;4986416;28;20536;-62
2023/10/15 00:08:14;;;;;;;2.58;0.75;;;11.90;76.10;;;;;;4987506;28;20038;-63
2023/10/15 00:10:39;;;;;;;3.83;0.90;;;11.80;76.00;;;;;;4984891;28;20056;-63
2023/10/15 00:13:05;;;;;;;3.05;0.90;;;11.80;76.00;;;;;;4985303;28;20161;-61
2023/10/15 00:15:31;;;;;;;3.60;0.93;;;11.90;76.10;;;;;;4985991;28;20046;-63
2023/10/15 00:18:02;;;;;;;4.32;0.65;;;11.80;76.00;;;;;;4986632;28;20084;-63
2023/10/15 00:20:34;;;;;;;2.50;0.88;;;11.80;76.30;;;;;;4985993;28;20038;-62
2023/10/15 00:23:04;;;;;;;4.32;1.00;;;11.80;76.60;;;;;;4986799;28;20803;-63
2023/10/15 00:25:37;;;;;;;3.05;1.00;;;11.80;76.50;;;;;;4986438;28;20043;-63
2023/10/15 00:28:05;;;;;;;3.47;0.80;;;11.80;76.50;;;;;;4986324;28;20080;-62
2023/10/15 00:30:32;;;;;;;3.22;0.80;;;11.80;76.70;;;;;;4986372;28;20046;-63
2023/10/15 00:32:59;;;;;;;2.70;0.80;;;11.80;76.50;;;;;;4985765;28;20046;-63
2023/10/15 00:35:27;;;;;;;3.45;0.90;;;11.80;76.40;;;;;;4986617;28;20046;-63
2023/10/15 00:40:20;;;;;;;2.10;0.80;;;11.80;76.70;;;;;;4986730;28;20123;-62
2023/10/15 00:42:45;;;;;;;3.10;0.90;;;11.80;76.80;;;;;;4985145;28;20100;-63
2023/10/15 00:45:17;;;;;;;3.13;0.77;;;11.80;76.90;;;;;;4985814;28;20151;-62
2023/10/15 00:47:44;;;;;;;3.97;1.08;;;11.80;77.00;;;;;;4985105;28;20033;-61
2023/10/15 00:50:11;;;;;;;1.52;0.63;;;11.80;76.60;;;;;;4983538;28;20030;-63
2023/10/15 00:52:43;;;;;;;2.55;0.65;;;11.80;76.60;;;;;;4989077;28;20037;-63
2023/10/15 00:55:17;;;;;;;2.25;0.65;;;11.80;76.80;;;;;;4990197;28;20034;-61
2023/10/15 00:57:46;;;;;;;5.28;0.90;;;11.80;77.00;;;;;;4988117;28;20048;-63
2023/10/15 01:02:57;;;;;;;2.40;0.77;;;11.80;77.20;;;;;;4983830;28;20193;-63
2023/10/15 01:05:26;;;;;;;3.58;0.88;;;11.80;77.10;;;;;;4985102;28;20038;-62
2023/10/15 01:07:54;;;;;;;2.35;0.82;;;11.80;77.20;;;;;;4986319;28;20049;-63
2023/10/15 01:10:36;;;;;;;3.15;1.00;;;11.80;77.10;;;;;;4983827;28;20034;-61
2023/10/15 01:13:21;;;;;;;2.85;0.95;;;11.80;77.10;;;;;;4986332;28;20280;-63
2023/10/15 01:15:54;;;;;;;1.88;0.63;;;11.80;76.90;;;;;;4985896;28;20611;-63
2023/10/15 01:18:20;;;;;;;2.38;0.80;;;11.80;76.70;;;;;;4987180;28;20454;-63
2023/10/15 01:20:45;;;;;;;3.33;0.80;;;11.80;76.80;;;;;;4987300;28;20057;-63
2023/10/15 01:23:28;;;;;;;3.60;0.50;;;11.80;76.70;;;;;;4987787;28;20105;-63
2023/10/15 01:25:59;;;;;;;4.38;0.90;;;11.80;76.60;;;;;;4986932;28;20445;-63
2023/10/15 01:28:36;;;;;;;4.63;0.80;;;11.80;76.60;;;;;;4987032;28;20096;-63
2023/10/15 01:31:04;;;;;;;2.97;0.80;;;11.80;76.50;;;;;;4985958;28;20045;-63
2023/10/15 01:33:30;;;;;;;3.83;1.10;;;11.80;76.30;;;;;;4986766;28;20125;-62
2023/10/15 01:36:06;;;;;;;2.25;0.70;;;11.80;76.40;;;;;;4986419;28;20686;-63
2023/10/15 01:38:33;;;;;;;2.58;0.77;;;11.80;76.90;;;;;;4986303;28;20766;-62
2023/10/15 01:41:03;;;;;;;1.98;0.70;;;11.80;77.30;;;;;;4991138;28;20251;-63
2023/10/15 01:43:32;;;;;;;3.08;0.65;;;11.80;76.20;;;;;;4986463;28;20031;-63
2023/10/15 01:45:59;;;;;;;1.67;0.70;;;11.80;76.00;;;;;;4988886;28;20105;-63
2023/10/15 01:48:30;;;;;;;2.00;0.60;;;11.80;76.10;;;;;;4988845;28;20113;-63
2023/10/15 01:51:05;;;;;;;1.33;0.80;;;11.80;76.30;;;;;;4990035;28;20030;-63
2023/10/15 01:53:34;;;;;;;2.78;0.80;;;11.80;76.30;;;;;;4989139;28;20058;-62
2023/10/15 01:56:02;;;;;;;2.75;0.80;;;11.80;76.20;;;;;;4987993;28;20068;-63
2023/10/15 01:58:31;;;;;;;2.42;1.10;;;11.80;76.30;;;;;;4985545;28;20042;-63
2023/10/15 02:01:59;;;;;;;4.20;1.00;;;11.80;76.30;;;;;;4985658;28;20046;-62
2023/10/15 02:04:05;;;;;;;3.67;1.00;;;11.80;76.40;;;;;;4985122;28;20042;-63
2023/10/15 02:06:43;;;;;;;3.00;0.70;;;11.80;76.30;;;;;;4986550;28;20042;-63
2023/10/15 02:09:12;;;;;;;3.53;1.08;;;11.80;76.30;;;;;;4987187;28;20038;-63
2023/10/15 02:11:47;;;;;;;2.83;1.17;;;11.80;76.20;;;;;;4987245;28;20027;-63
2023/10/15 02:14:23;;;;;;;2.90;0.80;;;11.90;76.30;;;;;;4986815;28;20043;-63
2023/10/15 02:16:50;;;;;;;1.63;0.90;;;11.80;76.20;;;;;;4986288;28;20031;-63
2023/10/15 02:19:29;;;;;;;3.97;0.77;;;11.80;76.20;;;;;;4986404;28;20037;-62
2023/10/15 02:21:56;;;;;;;3.38;1.08;;;11.80;76.30;;;;;;4987148;28;20030;-63
2023/10/15 02:24:23;;;;;;;4.70;1.10;;;11.80;76.40;;;;;;4986429;28;20964;-63
2023/10/15 02:26:49;;;;;;;3.22;0.90;;;11.80;76.60;;;;;;4985237;28;20176;-63
2023/10/15 02:32:06;;;;;;;4.32;0.70;;;11.80;76.70;;;;;;4986064;28;20062;-63
2023/10/15 02:34:32;;;;;;;2.58;0.60;;;11.80;76.60;;;;;;4985009;28;20076;-62
2023/10/15 02:37:03;;;;;;;1.90;0.60;;;11.80;76.60;;;;;;4983762;28;20058;-63
2023/10/15 02:39:36;;;;;;;3.13;0.70;;;11.80;76.60;;;;;;4985976;28;20030;-63
2023/10/15 02:42:02;;;;;;;2.85;0.75;;;11.80;76.50;;;;;;4984539;28;20125;-63
2023/10/15 02:44:32;;;;;;;2.88;0.73;;;11.80;76.50;;;;;;4985109;28;20089;-63
2023/10/15 02:47:06;;;;;;;2.20;0.70;;;11.80;76.60;;;;;;4986341;28;20113;-63
2023/10/15 02:49:49;;;;;;;2.58;0.70;;;11.70;76.60;;;;;;4986048;28;20034;-62
2023/10/15 02:52:18;;;;;;;3.00;0.77;;;11.70;77.00;;;;;;4985895;28;20042;-64
2023/10/15 02:54:47;;;;;;;2.80;0.63;;;11.70;77.30;;;;;;4985573;28;20150;-61
2023/10/15 02:57:15;;;;;;;1.73;0.70;;;11.70;77.40;;;;;;4985466;28;20493;-63
2023/10/15 02:59:51;;;;;;;3.10;0.68;;;11.70;77.40;;;;;;4985423;28;20050;-63
2023/10/15 03:02:20;;;;;;;3.95;0.70;;;11.70;77.20;;;;;;4986040;28;20026;-63
2023/10/15 03:04:53;;;;;;;3.88;0.80;;;11.70;76.80;;;;;;4984051;28;20038;-63
2023/10/15 03:07:19;;;;;;;2.72;1.00;;;11.70;76.50;;;;;;4985692;28;20038;-63
2023/10/15 03:09:51;;;;;;;4.50;1.02;;;11.70;76.70;;;;;;4985600;28;20516;-62
2023/10/15 03:12:18;;;;;;;1.75;0.50;;;11.70;77.00;;;;;;4988413;28;20509;-63
2023/10/15 03:14:44;;;;;;;2.95;0.90;;;11.70;77.10;;;;;;4988911;28;20132;-63
2023/10/15 03:17:14;;;;;;;4.25;0.60;;;11.70;77.30;;;;;;4989485;28;20030;-63
2023/10/15 03:19:42;;;;;;;4.75;1.00;;;11.70;77.30;;;;;;4989782;28;20039;-63
2023/10/15 03:22:11;;;;;;;2.58;0.68;;;11.70;77.30;;;;;;4989197;28;20105;-63
2023/10/15 03:24:37;;;;;;;3.10;0.60;;;11.70;77.20;;;;;;4989059;28;20034;-63
2023/10/15 03:27:05;;;;;;;1.83;0.85;;;11.70;77.30;;;;;;4988707;28;20659;-63
2023/10/15 03:29:31;;;;;;;2.28;0.95;;;11.80;77.30;;;;;;4988947;28;20394;-64
2023/10/15 03:32:12;;;;;;;2.47;0.70;;;11.80;77.20;;;;;;4990004;28;20054;-63
2023/10/15 03:34:47;;;;;;;3.45;0.90;;;11.80;77.00;;;;;;4988100;28;20141;-63
2023/10/15 03:37:16;;;;;;;0.98;0.57;;;11.80;77.20;;;;;;4988516;28;20041;-62
2023/10/15 03:42:17;;;;;;;3.50;0.90;;;11.70;77.30;;;;;;4986028;28;20066;-62
2023/10/15 03:44:47;;;;;;;4.45;0.98;;;11.70;77.40;;;;;;4988392;28;20306;-62
2023/10/15 03:47:14;;;;;;;3.55;0.63;;;11.70;77.50;;;;;;4989183;28;20039;-62
2023/10/15 03:49:40;;;;;;;3.97;0.80;;;11.70;77.40;;;;;;4988680;28;20426;-62
2023/10/15 03:52:14;;;;;;;4.32;1.00;;;11.70;77.50;;;;;;4988723;28;20038;-62
2023/10/15 03:54:40;;;;;;;3.00;0.70;;;11.70;77.40;;;;;;4988419;28;20070;-62
2023/10/15 03:57:08;;;;;;;2.95;0.90;;;11.70;77.50;;;;;;4988742;28;20065;-63
2023/10/15 03:59:44;;;;;;;2.95;0.90;;;11.70;77.50;;;;;;4988539;28;20117;-63
2023/10/15 04:05:08;;;;;;;3.15;0.90;;;11.70;77.60;;;;;;4975428;28;20042;-63
2023/10/15 04:07:39;;;;;;;2.85;1.00;;;11.70;77.70;;;;;;4989162;28;20038;-63
2023/10/15 04:10:07;;;;;;;2.00;0.90;;;11.70;77.70;;;;;;4988453;28;20034;-62
2023/10/15 04:12:35;;;;;;;2.78;0.90;;;11.70;77.60;;;;;;4986095;28;20521;-63
2023/10/15 04:15:03;;;;;;;3.17;1.10;;;11.70;77.40;;;;;;4987530;28;20042;-63
2023/10/15 04:17:29;;;;;;;2.22;1.05;;;11.70;77.40;;;;;;4988503;28;20505;-62
2023/10/15 04:19:55;;;;;;;2.47;0.90;;;11.70;77.50;;;;;;4988317;28;20046;-63
2023/10/15 04:22:21;;;;;;;4.00;0.60;;;11.70;77.40;;;;;;4986638;28;20040;-63
2023/10/15 04:24:47;;;;;;;2.22;0.80;;;11.70;77.40;;;;;;4987537;28;20390;-63
2023/10/15 04:27:17;;;;;;;4.90;0.88;;;11.80;77.30;;;;;;4987982;28;20030;-64
2023/10/15 04:29:55;;;;;;;3.92;0.90;;;11.80;77.30;;;;;;4985928;28;20666;-63
2023/10/15 04:33:07;;;;;;;9.68;1.30;;;11.80;77.10;;;;;;4988707;28;20038;-63
2023/10/15 04:35:11;;;;;;;4.75;1.85;;;11.80;77.20;;;;;;4983149;28;20050;-63
2023/10/15 04:37:39;;;;;;;6.28;1.50;;;11.80;77.10;;;;;;4989200;28;20069;-63
2023/10/15 04:40:06;;;;;;;2.90;1.08;;;11.80;77.00;;;;;;4988302;28;20066;-63
2023/10/15 04:42:43;;;;;;;5.75;1.35;;;11.80;76.80;;;;;;4986069;28;20122;-63
2023/10/15 04:45:54;;;;;;;3.97;1.20;;;11.80;76.70;;;;;;4987268;28;20034;-64
2023/10/15 04:48:02;;;;;;;1.65;0.82;;;11.80;76.60;;;;;;4982349;28;20038;-63
2023/10/15 04:50:29;;;;;;;1.63;0.52;;;11.70;76.60;;;;;;4987617;28;20030;-63
2023/10/15 04:53:12;;;;;;;3.08;0.90;;;11.80;77.50;;;;;;4987363;28;20038;-63
2023/10/15 04:55:41;;;;;;;1.83;0.80;;;11.70;76.70;;;;;;4987985;28;20039;-63
2023/10/15 04:58:07;;;;;;;3.70;1.20;;;11.80;76.80;;;;;;4988114;28;20068;-63
2023/10/15 05:00:35;;;;;;;4.03;1.00;;;11.80;76.80;;;;;;4986435;28;20058;-63
2023/10/15 05:03:01;;;;;;;2.03;0.73;;;11.80;76.60;;;;;;4987136;28;20070;-61
2023/10/15 05:05:26;;;;;;;3.03;0.73;;;11.80;76.50;;;;;;4986996;28;20066;-61
2023/10/15 05:07:57;;;;;;;3.08;1.10;;;11.70;76.20;;;;;;4986714;28;20509;-63
2023/10/15 05:10:23;;;;;;;3.83;1.05;;;11.80;76.20;;;;;;4986402;28;20050;-63
2023/10/15 05:12:51;;;;;;;2.75;0.80;;;11.70;76.00;;;;;;4984155;28;20066;-63
2023/10/15 05:15:18;;;;;;;2.03;0.70;;;11.70;76.00;;;;;;4987728;28;20030;-63
2023/10/15 05:17:46;;;;;;;3.80;0.98;;;11.70;76.10;;;;;;4987029;28;20046;-63
2023/10/15 05:20:13;;;;;;;3.45;0.85;;;11.70;76.20;;;;;;4985751;28;20626;-63
2023/10/15 05:22:39;;;;;;;3.50;0.90;;;11.60;76.20;;;;;;4987217;28;20034;-63
2023/10/15 05:25:05;;;;;;;3.20;0.90;;;11.70;76.40;;;;;;4986552;28;20532;-63
2023/10/15 05:27:34;;;;;;;5.30;1.05;;;11.60;76.30;;;;;;4987199;28;20039;-62
2023/10/15 05:29:59;;;;;;;3.42;0.85;;;11.60;76.30;;;;;;4985132;28;20042;-62
2023/10/15 05:32:25;;;;;;;5.80;0.90;;;11.60;76.50;;;;;;4986167;28;20685;-63
2023/10/15 05:34:51;;;;;;;1.50;0.55;;;11.60;76.50;;;;;;4986250;28;20038;-63
2023/10/15 05:37:17;;;;;;;4.10;1.27;;;11.60;76.70;;;;;;4986635;28;20038;-63
2023/10/15 05:39:42;;;;;;;3.30;0.93;;;11.70;76.80;;;;;;4986120;28;20034;-62
2023/10/15 05:42:08;;;;;;;4.85;1.23;;;11.70;76.60;;;;;;4985924;28;20042;-63
2023/10/15 05:44:35;;;;;;;4.50;1.05;;;11.70;76.60;;;;;;4986785;28;20511;-63
2023/10/15 05:47:01;;;;;;;4.47;0.90;;;11.70;76.60;;;;;;4987980;28;20088;-61
2023/10/15 05:49:26;;;;;;;4.15;1.23;;;11.70;76.60;;;;;;4987046;28;20034;-63
2023/10/15 05:51:52;;;;;;;3.67;1.23;;;11.70;76.60;;;;;;4986067;28;20038;-63
2023/10/15 05:54:18;;;;;;;6.63;1.20;;;11.70;76.80;;;;;;4984402;28;20711;-63
2023/10/15 05:56:44;;;;;;;3.75;1.08;;;11.70;76.80;;;;;;4985328;28;20088;-63
2023/10/15 05:59:11;;;;;;;2.78;0.98;;;11.70;76.80;;;;;;4986803;28;20077;-63
2023/10/15 06:01:36;;;;;;;2.80;1.00;;;11.70;76.80;;;;;;4987437;28;20453;-63
2023/10/15 06:04:03;;;;;;;3.45;1.05;;;11.70;77.00;;;;;;4986983;28;20054;-63
2023/10/15 06:06:28;;;;;;;6.63;1.30;;;11.70;77.00;;;;;;4985392;28;20088;-62
2023/10/15 06:08:56;;;;;;;4.05;1.30;;;11.70;77.00;;;;;;4986658;28;20038;-62
2023/10/15 06:11:21;;;;;;;5.32;1.73;;;11.70;77.10;;;;;;4985696;28;20461;-63
2023/10/15 06:13:47;;;;;;;2.45;1.23;;;11.70;77.20;;;;;;4986457;28;20070;-63
2023/10/15 06:16:14;;;;;;;4.40;1.35;;;11.70;77.20;;;;;;4985787;28;20080;-63
2023/10/15 06:18:39;;;;;;;4.53;1.25;;;11.70;77.10;;;;;;4983887;28;20030;-63
2023/10/15 06:21:05;;;;;;;4.35;1.30;;;11.70;77.00;;;;;;4986090;28;20038;-62
2023/10/15 06:23:32;;;;;;;6.80;3.28;;;11.70;77.00;;;;;;4986039;28;20041;-63
2023/10/15 06:25:58;;;;;;;6.35;2.25;;;11.70;77.00;;;;;;4985315;28;20038;-63
2023/10/15 06:28:25;;;;;;;5.43;1.33;;;11.70;77.00;;;;;;4984794;28;20093;-63
2023/10/15 06:30:51;;;;;;;5.30;2.10;;;11.60;77.00;;;;;;4984901;28;20069;-63
2023/10/15 06:33:18;;;;;;;4.97;1.20;;;11.60;77.20;;;;;;4984545;28;20413;-63
2023/10/15 06:35:43;;;;;;;3.80;0.93;;;11.60;77.40;;;;;;4985973;28;20225;-63
2023/10/15 06:38:09;;;;;;;3.38;1.00;;;11.50;77.50;;;;;;4984337;28;20318;-63
2023/10/15 06:40:37;;;;;;;2.90;1.02;;;11.50;77.80;;;;;;4985351;28;20122;-62
2023/10/15 06:43:03;;;;;;;5.38;1.40;;;11.50;78.10;;;;;;4985265;28;20042;-61
2023/10/15 06:45:30;;;;;;;3.67;1.30;;;11.50;78.40;;;;;;4983864;28;20465;-63
2023/10/15 06:47:55;;;;;;;6.10;1.48;;;11.50;78.60;;;;;;4984997;28;20042;-63
2023/10/15 06:50:22;;;;;;;3.90;1.30;;;11.50;78.70;;;;;;4985103;28;20038;-63
2023/10/15 06:52:48;;;;;;;4.47;1.13;;;11.60;78.70;;;;;;4984612;28;20046;-60
2023/10/15 06:55:14;;;;;;;4.80;1.63;;;11.50;78.40;;;;;;4985238;28;20042;-62
2023/10/15 06:57:42;;;;;;;4.68;1.30;;;11.50;78.00;;;;;;4985523;28;20058;-63
2023/10/15 07:00:12;;;;;;;4.63;1.42;;;11.50;78.20;;;;;;4985576;28;20058;-63
2023/10/15 07:02:38;;;;;;;4.43;1.25;;;11.50;78.70;;;;;;4983254;28;20046;-63
2023/10/15 07:05:04;;;;;;;4.00;1.27;;;11.40;78.80;;;;;;4985098;28;20042;-63
2023/10/15 07:07:33;;;;;;;3.13;1.50;;;11.40;78.90;;;;;;4987193;28;20050;-63
2023/10/15 07:10:05;;;;;;;3.90;1.15;;;11.40;79.30;;;;;;4986520;28;20047;-63
2023/10/15 07:12:32;;;;;;;4.20;1.40;;;11.40;79.70;;;;;;4984569;28;20039;-62
2023/10/15 07:14:57;;;;;;;3.10;1.30;;;11.50;80.00;;;;;;4985321;28;20065;-62
2023/10/15 07:17:23;;;;;;;2.72;1.27;;;11.50;80.30;;;;;;4985911;28;20058;-63
2023/10/15 07:19:49;;;;;;;3.60;1.33;;;11.50;80.50;;;;;;4985721;28;20042;-62
2023/10/15 07:22:14;;;;;;;5.97;1.52;;;11.50;80.30;;;;;;4985836;28;20035;-63
2023/10/15 07:24:40;;;;;;;3.38;1.48;;;11.50;80.30;;;;;;4986360;28;20034;-63
2023/10/15 07:27:05;;;;;;;5.05;1.40;;;11.50;80.30;;;;;;4987086;28;20576;-63
2023/10/15 07:29:31;;;;;;;2.78;1.50;;;11.60;80.70;;;;;;4986989;28;20845;-63
2023/10/15 07:31:57;;;;;;;3.63;1.67;;;11.60;81.90;;;;;;4987085;28;20516;-62
2023/10/15 07:34:29;;;;;;;4.35;1.27;;;11.60;81.10;;;;;;4986921;28;20042;-61
2023/10/15 07:36:55;;;;;;;3.15;1.40;;;11.70;80.80;;;;;;4986282;28;20168;-63
2023/10/15 07:39:23;;;;;;;13.02;3.70;;;11.70;80.70;;;;;;4987140;28;20026;-62
2023/10/15 07:41:48;;;;;;;2.83;1.50;;;11.80;81.00;;;;;;4985585;28;20039;-63
2023/10/15 07:44:15;;;;;;;5.57;1.52;;;11.80;80.80;;;;;;4986058;28;20039;-61
2023/10/15 07:46:42;;;;;;;2.95;1.17;;;11.80;80.50;;;;;;4984738;28;20124;-61
2023/10/15 07:49:16;;;;;;;3.92;1.15;;;11.80;80.50;;;;;;4985955;28;20038;-61
2023/10/15 07:51:41;;;;;;;3.15;1.02;;;11.90;80.40;;;;;;4979976;28;20055;-63
2023/10/15 07:54:07;;;;;;;6.07;1.25;;;11.80;80.10;;;;;;4968134;28;20030;-61
2023/10/15 07:56:34;;;;;;;4.35;0.95;;;11.80;80.10;;;;;;4976224;28;20038;-62
2023/10/15 07:59:04;;;;;;;6.00;1.38;;;11.80;80.30;;;;;;4982126;28;20031;-61
2023/10/15 08:01:30;;;;;;;3.53;1.38;;;11.80;80.30;;;;;;4984011;28;20042;-62
2023/10/15 08:03:55;;;;;;;2.85;1.33;;;11.80;80.50;;;;;;4980911;28;20053;-61
2023/10/15 08:06:23;;;;;;;3.88;1.23;;;11.80;80.60;;;;;;4979314;28;20035;-61
2023/10/15 08:08:49;;;;;;;3.45;1.20;;;11.80;80.30;;;;;;4978862;28;20039;-62
2023/10/15 08:11:15;;;;;;;2.38;1.08;;;11.90;79.80;;;;;;4983785;28;20038;-61
2023/10/15 08:13:40;;;;;;;4.45;1.33;;;11.90;79.50;;;;;;4984011;28;20133;-61
2023/10/15 08:16:07;;;;;;;3.58;1.20;;;11.90;79.50;;;;;;4983847;28;20042;-62
2023/10/15 08:18:33;;;;;;;3.03;1.00;;;11.90;79.50;;;;;;4979543;28;20086;-59
2023/10/15 08:20:58;;;;;;;2.42;1.23;;;11.90;79.60;;;;;;4985729;28;20030;-60
2023/10/15 08:23:24;;;;;;;1.70;1.00;;;11.90;79.80;;;;;;4979199;28;20045;-62
2023/10/15 08:25:50;;;;;;;2.13;1.00;;;11.90;79.60;;;;;;4985910;28;20031;-62
2023/10/15 08:28:16;;;;;;;3.25;1.10;;;12.00;79.70;;;;;;4980398;28;20062;-60
2023/10/15 08:30:42;;;;;;;4.60;0.82;;;12.00;79.20;;;;;;4983004;28;20057;-61
2023/10/15 08:33:12;;;;;;;3.70;1.02;;;11.90;78.00;;;;;;4980039;28;20401;-62
2023/10/15 08:35:38;;;;;;;2.95;0.90;;;11.90;78.40;;;;;;4983859;28;20046;-62
2023/10/15 08:38:07;;;;;;;3.03;1.00;;;11.90;78.50;;;;;;4985230;28;20031;-63
2023/10/15 08:40:39;;;;;;;2.75;0.70;;;11.80;78.50;;;;;;4983700;28;20061;-63
2023/10/15 08:43:23;;;;;;;2.42;1.08;;;11.70;78.60;;;;;;4980448;28;20121;-62
2023/10/15 08:45:51;;;;;;;3.00;0.90;;;11.60;79.40;;;;;;4984699;28;20611;-61
2023/10/15 08:48:18;;;;;;;2.90;1.02;;;11.50;78.30;;;;;;4983354;28;20045;-61
2023/10/15 08:50:45;;;;;;;1.60;0.70;;;11.50;78.90;;;;;;4979809;28;20042;-63
2023/10/15 08:53:13;;;;;;;1.00;0.77;;;11.40;79.40;;;;;;4984928;28;20406;-62
2023/10/15 08:55:41;;;;;;;2.40;0.77;;;11.40;79.60;;;;;;4985018;28;20030;-62
2023/10/15 08:58:09;;;;;;;3.72;0.82;;;11.30;80.10;;;;;;4983690;28;20104;-61
2023/10/15 09:00:36;;;;;;;2.45;1.00;;;11.40;80.80;;;;;;4988345;28;20051;-62
2023/10/15 09:03:03;;;;;;;1.98;0.70;;;11.40;81.00;;;;;;4987208;28;20030;-61
2023/10/15 09:05:40;;;;;;;2.47;0.80;;;11.40;80.90;;;;;;4982892;28;20052;-62
2023/10/15 09:08:07;;;;;;;1.75;0.60;;;11.50;81.00;;;;;;4987126;28;20126;-62
2023/10/15 09:10:36;;;;;;;2.17;0.52;;;11.50;80.60;;;;;;4986676;28;20049;-62
2023/10/15 09:13:03;;;;;;;1.52;0.65;;;11.50;80.70;;;;;;4982931;28;20034;-62
2023/10/15 09:15:30;;;;;;;1.52;0.65;;;11.60;81.00;;;;;;4981808;28;20037;-62
2023/10/15 09:17:59;;;;;;;1.90;0.90;;;11.60;81.20;;;;;;4984816;28;20022;-60
2023/10/15 09:20:26;;;;;;;1.40;0.65;;;11.60;80.90;;;;;;4981540;28;20394;-63
2023/10/15 09:22:58;;;;;;;1.65;0.70;;;11.60;80.90;;;;;;4983172;28;20045;-62
2023/10/15 09:25:28;;;;;;;1.92;0.50;;;11.70;80.80;;;;;;4985980;28;20116;-61
2023/10/15 09:27:55;;;;;;;1.55;0.60;;;11.70;80.40;;;;;;4984018;28;20446;-62
2023/10/15 09:30:22;;;;;;;0.75;0.57;;;11.80;80.30;;;;;;4981587;28;20042;-62
2023/10/15 09:32:48;;;;;;;1.90;0.75;;;11.80;80.10;;;;;;4982731;28;20039;-62
2023/10/15 09:35:14;;;;;;;1.60;0.73;;;11.80;80.10;;;;;;4986622;28;20041;-63
2023/10/15 09:37:40;;;;;;;2.95;0.65;;;11.90;79.90;;;;;;4979554;28;20030;-60
2023/10/15 09:40:09;;;;;;;0.85;0.40;;;11.90;79.20;;;;;;4976637;28;20038;-61
2023/10/15 09:42:38;;;;;;;1.63;0.50;;;11.90;78.20;;;;;;4971324;28;20035;-63
2023/10/15 09:45:05;;;;;;;1.40;0.60;;;11.90;78.40;;;;;;4973401;28;20414;-62
2023/10/15 09:47:33;;;;;;;2.33;0.77;;;11.90;78.90;;;;;;4975392;28;20125;-62
2023/10/15 09:50:01;;;;;;;2.67;0.70;;;11.90;77.60;;;;;;4980109;28;20038;-61
2023/10/15 09:52:29;;;;;;;2.63;0.70;;;11.90;76.50;;;;;;4977251;28;20049;-63
2023/10/15 09:54:56;;;;;;;1.90;0.70;;;11.90;76.80;;;;;;4974287;28;20301;-62
2023/10/15 09:57:25;;;;;;;1.77;0.68;;;11.90;77.60;;;;;;4981459;28;20113;-63
2023/10/15 09:59:53;;;;;;;2.63;0.93;;;12.00;78.40;;;;;;4986166;28;20070;-62
2023/10/15 10:02:32;;;;;;;3.40;0.80;;;12.10;78.90;;;;;;4985976;28;20132;-63
2023/10/15 10:05:45;;;;;;;5.88;0.98;;;12.20;78.80;;;;;;4986066;28;21751;-61
2023/10/15 10:08:41;;;;;;;1.80;0.70;;;12.30;76.90;;;;;;4988201;28;20041;-62
2023/10/15 10:11:34;;;;;;;0.90;0.52;;;12.40;77.70;;;;;;4983870;28;20038;-61
2023/10/15 10:14:41;;;;;;;2.25;0.70;;;12.50;77.60;;;;;;4987937;28;20049;-61
2023/10/15 10:17:07;;;;;;;3.38;0.85;;;12.60;75.10;;;;;;4987276;28;20058;-62
2023/10/15 10:19:33;;;;;;;2.13;0.80;;;12.70;76.10;;;;;;4987303;28;20282;-61
2023/10/15 10:21:59;;;;;;;3.15;0.70;;;12.80;75.40;;;;;;4987272;28;20034;-62
2023/10/15 10:24:41;;;;;;;1.85;0.85;;;12.80;74.70;;;;;;4987196;28;20129;-62
2023/10/15 10:27:14;;;;;;;1.50;0.60;;;12.90;74.60;;;;;;4987034;28;20045;-62
2023/10/15 10:29:41;;;;;;;0.88;0.60;;;12.90;74.90;;;;;;4987457;28;20045;-62
2023/10/15 10:32:11;;;;;;;3.80;0.75;;;12.90;74.70;;;;;;4987561;28;20127;-61
2023/10/15 10:34:36;;;;;;;1.38;0.50;;;12.90;73.50;;;;;;4986371;28;20087;-62
2023/10/15 10:37:03;;;;;;;3.28;1.17;;;12.90;74.20;;;;;;4987696;28;20073;-61
2023/10/15 10:39:44;;;;;;;3.30;2.03;;;13.00;74.20;;;;;;4987014;28;20080;-62
2023/10/15 10:42:22;;;;;;;3.60;1.40;;;12.90;72.80;;;;;;4987352;28;20039;-60
2023/10/15 10:44:48;;;;;;;1.20;0.85;;;12.90;72.80;;;;;;4986380;28;20049;-62
2023/10/15 10:47:22;;;;;;;1.42;0.82;;;12.90;73.20;;;;;;4987495;28;20065;-62
2023/10/15 10:49:55;;;;;;;2.87;1.03;;;12.90;73.00;;;;;;4986634;28;20121;-61
2023/10/15 10:52:29;;;;;;;1.80;0.73;;;12.90;73.50;;;;;;4987195;28;20034;-62
2023/10/15 10:55:16;;;;;;;2.28;0.90;;;12.80;74.40;;;;;;4985715;28;20035;-62
2023/10/15 10:57:42;;;;;;;4.63;0.98;;;12.90;74.60;;;;;;4986802;28;20053;-62
2023/10/15 11:00:12;;;;;;;2.92;1.20;;;12.90;73.90;;;;;;4985051;28;20405;-63
2023/10/15 11:02:37;;;;;;;3.08;1.05;;;12.90;74.50;;;;;;4981318;28;20494;-60
2023/10/15 11:05:04;;;;;;;2.08;0.90;;;12.90;74.70;;;;;;4984867;28;20046;-60
2023/10/15 11:07:36;;;;;;;3.35;1.00;;;13.00;74.50;;;;;;4985838;28;20034;-62
2023/10/15 11:10:05;;;;;;;1.65;0.73;;;13.00;73.70;;;;;;4984037;28;20034;-62
2023/10/15 11:12:31;;;;;;;1.85;0.60;;;13.00;73.20;;;;;;4983271;28;20034;-62
2023/10/15 11:14:57;;;;;;;2.65;1.15;;;13.00;73.50;;;;;;4985649;28;20410;-62
2023/10/15 11:17:23;;;;;;;3.75;0.90;;;13.00;73.10;;;;;;4983007;28;20113;-62
2023/10/15 11:19:48;;;;;;;1.30;0.60;;;13.10;73.00;;;;;;4983815;28;20066;-60
2023/10/15 11:22:14;;;;;;;4.25;0.60;;;13.10;72.60;;;;;;4984525;28;20498;-61
2023/10/15 11:24:39;;;;;;;2.25;1.35;;;13.10;70.80;;;;;;4979897;28;20030;-62
2023/10/15 11:27:11;;;;;;;1.17;0.65;;;13.10;69.70;;;;;;4985779;28;20030;-62
2023/10/15 11:29:37;;;;;;;2.22;0.70;;;13.00;69.50;;;;;;4984463;28;20045;-62
2023/10/15 11:32:06;;;;;;;3.95;0.57;;;12.90;69.50;;;;;;4986271;28;20426;-62
2023/10/15 11:34:35;;;;;;;1.95;0.88;;;12.90;68.90;;;;;;4987095;28;20030;-62
2023/10/15 11:37:02;;;;;;;2.30;0.80;;;12.80;68.60;;;;;;4987249;28;20049;-62
2023/10/15 11:42:09;;;;;;;1.02;0.60;;;12.50;68.90;;;;;;4989106;28;20034;-61
2023/10/15 11:44:42;;;;;;;1.38;0.47;;;12.50;69.40;;;;;;4988022;28;20038;-62
2023/10/15 11:47:19;;;;;;;3.10;0.90;;;12.40;69.80;;;;;;4987108;28;20045;-61
2023/10/15 11:49:45;;;;;;;1.27;1.00;;;12.30;69.80;;;;;;4988639;28;20041;-62
2023/10/15 11:52:22;;;;;;;3.38;0.50;;;12.30;70.20;;;;;;4986007;28;20031;-62
2023/10/15 11:54:51;;;;;;;1.88;0.70;;;12.30;69.70;;;;;;4987682;28;20406;-61
2023/10/15 11:57:26;;;;;;;2.83;0.85;;;12.20;70.30;;;;;;4988865;28;20034;-62
2023/10/15 11:59:53;;;;;;;1.33;0.60;;;12.20;70.10;;;;;;4985666;28;20022;-61
2023/10/15 12:02:19;;;;;;;1.67;0.68;;;12.10;70.00;;;;;;4985427;28;20524;-61
2023/10/15 12:04:51;;;;;;;1.08;0.57;;;12.00;68.80;;;;;;4983985;28;20042;-62
2023/10/15 12:07:18;;;;;;;2.38;0.70;;;12.00;69.60;;;;;;4988795;28;20692;-60
2023/10/15 12:09:44;;;;;;;1.58;0.57;;;11.80;70.40;;;;;;4987407;28;20045;-62
2023/10/15 12:12:11;;;;;;;1.70;0.57;;;11.70;71.10;;;;;;4986498;28;20105;-60
2023/10/15 12:14:37;;;;;;;1.55;0.50;;;11.60;70.60;;;;;;4986514;28;20074;-62
2023/10/15 12:17:04;;;;;;;0.80;0.40;;;11.50;70.70;;;;;;4988854;28;20073;-62
2023/10/15 12:19:30;;;;;;;1.40;0.63;;;11.50;70.40;;;;;;4988973;28;20031;-62
2023/10/15 12:21:58;;;;;;;1.13;0.57;;;11.40;69.00;;;;;;4987163;28;20035;-62
2023/10/15 12:24:25;;;;;;;1.20;0.40;;;11.40;69.50;;;;;;4988796;28;20517;-63
2023/10/15 12:26:51;;;;;;;1.60;0.70;;;11.40;69.60;;;;;;4986870;28;20169;-62
2023/10/15 12:29:28;;;;;;;3.70;0.70;;;11.40;69.70;;;;;;4981776;28;20056;-62
2023/10/15 12:31:56;;;;;;;1.27;0.60;;;11.40;70.30;;;;;;4988246;28;20179;-61
2023/10/15 12:34:22;;;;;;;3.13;0.50;;;11.40;71.10;;;;;;4989069;28;20034;-61
2023/10/15 12:36:51;;;;;;;3.67;0.60;;;11.40;71.10;;;;;;4980936;28;20038;-61
2023/10/15 12:39:26;;;;;;;1.38;0.68;;;11.50;70.90;;;;;;4990642;28;20584;-62
2023/10/15 12:41:53;;;;;;;1.00;0.50;;;11.50;70.90;;;;;;4988779;28;20126;-62
2023/10/15 12:44:18;;;;;;;1.50;0.60;;;11.60;71.20;;;;;;4989134;28;20117;-62
2023/10/15 12:46:44;;;;;;;1.45;0.88;;;11.60;70.60;;;;;;4987357;28;20919;-61
2023/10/15 12:49:10;;;;;;;2.45;1.45;;;11.60;70.10;;;;;;4988058;28;20046;-61
2023/10/15 12:51:36;;;;;;;2.15;0.82;;;11.70;70.50;;;;;;4988877;28;20741;-61
2023/10/15 12:54:05;;;;;;;2.17;1.00;;;11.70;70.20;;;;;;4988432;28;20092;-61
2023/10/15 12:56:31;;;;;;;2.33;0.77;;;11.80;70.90;;;;;;4988668;28;20042;-63
2023/10/15 12:58:57;;;;;;;2.40;0.70;;;11.80;70.80;;;;;;4988429;28;20529;-61
2023/10/15 13:01:23;;;;;;;1.40;0.65;;;11.90;70.30;;;;;;4989435;28;20039;-63
2023/10/15 13:03:49;;;;;;;2.50;1.17;;;11.90;70.40;;;;;;4988766;28;20711;-62
2023/10/15 13:06:15;;;;;;;2.85;0.93;;;12.00;70.60;;;;;;4989688;28;20525;-62
2023/10/15 13:08:42;;;;;;;2.42;0.80;;;12.00;69.70;;;;;;4985602;28;20038;-63
2023/10/15 13:11:08;;;;;;;2.10;0.80;;;12.10;69.90;;;;;;4983460;28;20089;-63
2023/10/15 13:13:33;;;;;;;1.45;0.65;;;12.10;70.00;;;;;;4985391;28;20038;-63